Amaranth, Pennsylvania
Current Conditions -  °F | °C
As of 2:53 AM on Friday 24 Oct 2014 (Local Time) from KHGR Reporting Station
Clear Clear  
Wind Chill: 11°   Ceiling: Unl
Heat Index: 11°   Visibility: 10mi
Dew Point:   Wind: 13mph
Humidity: 69%   Direction: 300°WNW
Pressure: 29.95"   Gusts: NA
Location:  39.7745°N, 78.2026°W
Report Text: KHGR 240653Z AUTO 30011KT 10SM CLR 11/06 A2995 RMK AO2 SLP151 T01110056
Loading
Personal Weather Stations






























Interactive Weather Map
Tropical Storm Tracking
New forecast layout! Learn more

10-Day Weather Forecast

Advertisements
Track Severe Weather on mobile